Terminal Aerodrome Forecast
Issued by NWS

Home | Current Version | Previous Version | Text Only | Print | Product List | Glossary On
Versions: 1 2 3 4 5 6 7 8 9 10 11 12 13
744
FTUS46 KMTR 292356
TAFSJC
TAF
KSJC 292356Z 3000/3024 31011KT P6SM FEW080 SCT120
     FM300600 30005KT P6SM FEW080 SCT120
     FM301000 VRB03KT 6SM HZ FEW007 SCT120
     FM301800 32010KT 6SM HZ SCT120=

USA.gov is the U.S. government's official web portal to all federal, state and local government web resources and services.